createdAt,value
2023-02-22T00:02:14.096Z,100367.00
2023-02-22T00:04:42.078Z,100359.80
2023-02-22T00:07:10.026Z,100349.20
2023-02-22T00:09:37.822Z,100353.00
2023-02-22T00:12:05.772Z,100348.80
2023-02-22T00:14:33.640Z,100352.00
2023-02-22T00:17:02.520Z,100354.40
2023-02-22T00:19:31.076Z,100352.80
2023-02-22T00:22:00.302Z,100364.20
2023-02-22T00:24:29.557Z,100357.40
2023-02-22T00:26:57.624Z,100363.60
2023-02-22T00:29:26.516Z,100363.80
2023-02-22T00:31:54.514Z,100365.40
2023-02-22T00:34:24.154Z,100370.40
2023-02-22T00:36:52.122Z,100367.40
2023-02-22T00:39:20.388Z,100361.20
2023-02-22T00:41:49.833Z,100356.20
2023-02-22T00:44:17.865Z,100352.20
2023-02-22T00:46:46.320Z,100351.80
2023-02-22T00:49:17.049Z,100346.80
2023-02-22T00:51:45.149Z,100347.80
2023-02-22T00:54:14.411Z,100351.40
2023-02-22T00:56:42.797Z,100334.00
2023-02-22T00:59:10.675Z,100334.40
2023-02-22T01:01:38.575Z,100331.20
2023-02-22T01:04:06.916Z,100327.40
2023-02-22T01:06:35.310Z,100321.20
2023-02-22T01:09:04.727Z,100326.00
2023-02-22T01:11:32.533Z,100325.60
2023-02-22T01:14:02.210Z,100325.00
2023-02-22T01:16:30.030Z,100328.00
2023-02-22T01:18:57.848Z,100324.60
2023-02-22T01:21:25.649Z,100321.00
2023-02-22T01:23:55.685Z,100321.60
2023-02-22T01:26:23.654Z,100332.20
2023-02-22T01:28:51.441Z,100337.60
2023-02-22T01:31:19.794Z,100334.20
2023-02-22T01:33:47.866Z,100329.00
2023-02-22T01:36:16.681Z,100326.80
2023-02-22T01:38:45.534Z,100329.20
2023-02-22T01:41:13.941Z,100324.60
2023-02-22T01:43:41.793Z,100326.80
2023-02-22T01:46:25.952Z,100322.80
2023-02-22T01:48:59.789Z,100317.40
2023-02-22T01:51:37.739Z,100314.20
2023-02-22T01:54:33.470Z,100310.80
2023-02-22T01:57:29.933Z,100316.20
2023-02-22T02:00:10.176Z,100311.60
2023-02-22T02:02:48.073Z,100308.20
2023-02-22T02:05:20.446Z,100304.00
2023-02-22T02:07:49.390Z,100304.60
2023-02-22T02:10:17.994Z,100302.60
2023-02-22T02:12:50.736Z,100296.20
2023-02-22T02:15:32.361Z,100294.60
2023-02-22T02:18:09.023Z,100303.00
2023-02-22T02:20:50.579Z,100293.80
2023-02-22T02:23:44.156Z,100297.60
2023-02-22T02:26:42.361Z,100289.40
2023-02-22T02:29:43.637Z,100286.80
2023-02-22T02:32:30.274Z,100283.60
2023-02-22T02:35:51.083Z,100284.60
2023-02-22T02:38:46.160Z,100284.00
2023-02-22T02:41:34.994Z,100276.00
2023-02-22T02:44:13.152Z,100270.20
2023-02-22T02:46:59.347Z,100264.60
2023-02-22T02:49:58.443Z,100258.80
2023-02-22T02:52:29.190Z,100255.80
2023-02-22T02:54:58.544Z,100261.20
2023-02-22T02:57:26.487Z,100254.60
2023-02-22T02:59:54.265Z,100257.40
2023-02-22T03:02:25.908Z,100251.20
2023-02-22T03:05:45.249Z,100243.80
2023-02-22T03:08:40.870Z,100249.80
2023-02-22T03:11:42.730Z,100246.40
2023-02-22T03:14:27.105Z,100253.60
2023-02-22T03:17:16.756Z,100256.20
2023-02-22T03:20:09.774Z,100257.80
2023-02-22T03:22:54.562Z,100253.80
2023-02-22T03:25:34.159Z,100253.80
2023-02-22T03:28:11.859Z,100251.60
2023-02-22T03:30:50.713Z,100244.60
2023-02-22T03:33:34.020Z,100247.00
2023-02-22T03:36:30.089Z,100242.20
2023-02-22T03:39:01.114Z,100237.20
2023-02-22T03:41:33.598Z,100234.60
2023-02-22T03:44:11.837Z,100233.60
2023-02-22T03:46:42.223Z,100229.00
2023-02-22T03:49:35.122Z,100226.80
2023-02-22T03:52:05.137Z,100227.00
2023-02-22T03:54:35.041Z,100222.20
2023-02-22T03:57:26.276Z,100221.40
2023-02-22T04:00:07.395Z,100223.20
2023-02-22T04:02:41.904Z,100217.80
2023-02-22T04:05:10.771Z,100214.80
2023-02-22T04:07:38.551Z,100216.00
2023-02-22T04:10:11.046Z,100207.20
2023-02-22T04:12:39.749Z,100206.80
2023-02-22T04:15:12.363Z,100200.40
2023-02-22T04:17:40.148Z,100195.00
2023-02-22T04:20:11.692Z,100197.40
2023-02-22T04:22:46.841Z,100193.80
2023-02-22T04:25:16.064Z,100191.60
2023-02-22T04:27:44.741Z,100187.20
2023-02-22T04:30:13.388Z,100182.00
2023-02-22T04:32:41.760Z,100185.40
2023-02-22T04:35:10.002Z,100185.60
2023-02-22T04:37:38.017Z,100187.60
2023-02-22T04:40:08.901Z,100184.80
2023-02-22T04:42:38.854Z,100188.40
2023-02-22T04:45:09.551Z,100182.20
2023-02-22T04:47:38.343Z,100178.80
2023-02-22T04:50:09.553Z,100181.40
2023-02-22T04:52:37.810Z,100181.80
2023-02-22T04:55:07.515Z,100187.20
2023-02-22T04:57:37.265Z,100190.80
2023-02-22T05:00:06.384Z,100181.60
2023-02-22T05:02:34.815Z,100184.20
2023-02-22T05:05:02.664Z,100178.40
2023-02-22T05:07:30.589Z,100173.40
2023-02-22T05:09:58.802Z,100176.20
2023-02-22T05:12:27.949Z,100171.60
2023-02-22T05:14:55.756Z,100164.00
2023-02-22T05:17:23.752Z,100170.80
2023-02-22T05:19:51.527Z,100165.60
2023-02-22T05:22:19.283Z,100171.40
2023-02-22T05:24:47.124Z,100167.80
2023-02-22T05:27:14.925Z,100157.60
2023-02-22T05:29:42.703Z,100155.40
2023-02-22T05:32:12.293Z,100157.40
2023-02-22T05:34:40.597Z,100153.80
2023-02-22T05:37:08.350Z,100154.20
2023-02-22T05:39:36.176Z,100153.80
2023-02-22T05:42:04.262Z,100149.60
2023-02-22T05:44:32.026Z,100152.80
2023-02-22T05:46:59.844Z,100150.60
2023-02-22T05:49:27.716Z,100152.00
2023-02-22T05:51:59.569Z,100147.60
2023-02-22T05:54:27.318Z,100147.40
2023-02-22T05:56:55.135Z,100148.20
2023-02-22T05:59:22.954Z,100148.00
2023-02-22T06:01:50.765Z,100148.00
2023-02-22T06:04:18.597Z,100145.40
2023-02-22T06:06:46.419Z,100146.40
2023-02-22T06:09:14.249Z,100144.40
2023-02-22T06:11:42.080Z,100143.40
2023-02-22T06:14:10.078Z,100140.20
2023-02-22T06:16:38.511Z,100140.00
2023-02-22T06:19:06.325Z,100145.80
2023-02-22T06:21:34.109Z,100147.00
2023-02-22T06:24:04.512Z,100145.40
2023-02-22T06:26:32.391Z,100152.00
2023-02-22T06:29:00.253Z,100150.20
2023-02-22T06:31:28.059Z,100149.80
2023-02-22T06:33:56.361Z,100147.80
2023-02-22T06:36:24.174Z,100146.00
2023-02-22T06:38:52.102Z,100146.60
2023-02-22T06:41:19.956Z,100154.20
2023-02-22T06:43:48.637Z,100147.40
2023-02-22T06:46:16.733Z,100147.20
2023-02-22T06:48:44.545Z,100148.00
2023-02-22T06:51:12.511Z,100150.00
2023-02-22T06:53:40.395Z,100153.60
2023-02-22T06:56:08.219Z,100158.60
2023-02-22T06:58:36.020Z,100152.40
2023-02-22T07:01:04.319Z,100160.40
2023-02-22T07:03:32.225Z,100157.80
2023-02-22T07:06:00.210Z,100166.00
2023-02-22T07:08:29.097Z,100164.00
2023-02-22T07:10:57.174Z,100164.60
2023-02-22T07:13:25.246Z,100166.40
2023-02-22T07:15:53.314Z,100161.00
2023-02-22T07:18:21.224Z,100164.60
2023-02-22T07:20:49.097Z,100168.60
2023-02-22T07:23:18.453Z,100170.40
2023-02-22T07:25:46.371Z,100169.20
2023-02-22T07:28:14.315Z,100172.40
2023-02-22T07:30:43.702Z,100164.60
2023-02-22T07:33:14.019Z,100165.60
2023-02-22T07:35:48.397Z,100168.80
2023-02-22T07:38:20.305Z,100164.40
2023-02-22T07:40:48.343Z,100167.60
2023-02-22T07:43:25.957Z,100162.00
2023-02-22T07:45:58.026Z,100167.20
2023-02-22T07:48:30.077Z,100157.00
2023-02-22T07:50:59.647Z,100167.60
2023-02-22T07:53:32.512Z,100171.00
2023-02-22T07:56:03.671Z,100170.80
2023-02-22T07:58:32.904Z,100170.60
2023-02-22T08:01:04.243Z,100172.80
2023-02-22T08:03:37.841Z,100178.80
2023-02-22T08:06:08.104Z,100184.40
2023-02-22T08:08:35.935Z,100183.80
2023-02-22T08:11:04.282Z,100176.40
2023-02-22T08:13:32.873Z,100163.60
2023-02-22T08:16:00.756Z,100171.80
2023-02-22T08:18:28.565Z,100174.80
2023-02-22T08:20:56.916Z,100178.20
2023-02-22T08:23:27.094Z,100182.80
2023-02-22T08:25:56.283Z,100182.80
2023-02-22T08:28:25.362Z,100185.60
2023-02-22T08:30:53.712Z,100184.60
2023-02-22T08:33:21.978Z,100187.80
2023-02-22T08:35:50.274Z,100183.80
2023-02-22T08:38:31.094Z,100179.40
2023-02-22T08:40:58.974Z,100186.00
2023-02-22T08:43:28.556Z,100185.40
2023-02-22T08:45:57.829Z,100187.60
2023-02-22T08:48:25.839Z,100181.20
2023-02-22T08:50:53.954Z,100181.80
2023-02-22T08:53:21.805Z,100179.80
2023-02-22T08:55:49.876Z,100178.80
2023-02-22T08:58:17.770Z,100180.00
2023-02-22T09:00:45.807Z,100179.00
2023-02-22T09:03:15.509Z,100182.40
2023-02-22T09:05:44.979Z,100182.20
2023-02-22T09:08:13.424Z,100185.20
2023-02-22T09:10:41.817Z,100188.40
2023-02-22T09:13:09.668Z,100188.60
2023-02-22T09:15:38.306Z,100188.20
2023-02-22T09:18:09.507Z,100186.40
2023-02-22T09:20:37.749Z,100180.00
2023-02-22T09:23:09.667Z,100178.20
2023-02-22T09:25:40.847Z,100178.60
2023-02-22T09:28:09.324Z,100184.60
2023-02-22T09:30:37.558Z,100186.60
2023-02-22T09:33:14.645Z,100188.40
2023-02-22T09:35:46.579Z,100190.00
2023-02-22T09:38:19.428Z,100185.20
2023-02-22T09:40:57.273Z,100191.20
2023-02-22T09:43:43.111Z,100189.20
2023-02-22T09:46:34.705Z,100194.00
2023-02-22T09:49:15.570Z,100190.20
2023-02-22T09:52:24.104Z,100191.00
2023-02-22T09:55:17.852Z,100198.60
2023-02-22T09:57:47.402Z,100196.20
2023-02-22T10:00:22.716Z,100191.80
2023-02-22T10:03:12.491Z,100188.40
2023-02-22T10:05:46.458Z,100190.60
2023-02-22T10:08:19.059Z,100187.20
2023-02-22T10:11:19.704Z,100196.20
2023-02-22T10:14:19.692Z,100195.80
2023-02-22T10:17:19.846Z,100196.40
2023-02-22T10:20:00.458Z,100193.20
2023-02-22T10:23:00.940Z,100197.00
2023-02-22T10:25:36.252Z,100188.80
2023-02-22T10:28:15.930Z,100188.00
2023-02-22T10:30:57.586Z,100192.40
2023-02-22T10:33:34.772Z,100198.80
2023-02-22T10:36:03.365Z,100191.40
2023-02-22T10:38:34.630Z,100193.00
2023-02-22T10:41:08.763Z,100193.20
2023-02-22T10:43:42.934Z,100197.20
2023-02-22T10:46:19.051Z,100189.60
2023-02-22T10:48:55.064Z,100195.00
2023-02-22T10:51:23.257Z,100190.00
2023-02-22T10:54:14.189Z,100186.20
2023-02-22T10:56:52.401Z,100188.40
2023-02-22T10:59:42.053Z,100192.60
2023-02-22T11:02:16.060Z,100193.20
2023-02-22T11:04:51.430Z,100193.80
2023-02-22T11:07:27.362Z,100199.00
2023-02-22T11:10:09.518Z,100199.40
2023-02-22T11:12:41.316Z,100197.20
2023-02-22T11:15:24.334Z,100197.60
2023-02-22T11:17:57.826Z,100198.20
2023-02-22T11:20:39.348Z,100198.00
2023-02-22T11:23:08.290Z,100197.60
2023-02-22T11:25:40.485Z,100197.80
2023-02-22T11:28:31.240Z,100201.60
2023-02-22T11:31:14.607Z,100200.20
2023-02-22T11:33:58.930Z,100200.00
2023-02-22T11:36:40.412Z,100200.80
2023-02-22T11:39:29.387Z,100206.80
2023-02-22T11:41:57.395Z,100207.00
2023-02-22T11:44:29.836Z,100211.20
2023-02-22T11:47:07.075Z,100210.40
2023-02-22T11:49:41.197Z,100208.80
2023-02-22T11:52:34.750Z,100210.40
2023-02-22T11:55:36.431Z,100210.80
2023-02-22T11:58:33.563Z,100207.80
2023-02-22T12:01:17.288Z,100209.40
2023-02-22T12:04:10.583Z,100208.00
2023-02-22T12:07:15.445Z,100202.00
2023-02-22T12:10:05.606Z,100201.60
2023-02-22T12:13:03.745Z,100196.40
2023-02-22T12:15:56.295Z,100190.80
2023-02-22T12:18:58.854Z,100195.00
2023-02-22T12:21:30.214Z,100189.40
2023-02-22T12:24:14.503Z,100187.00
2023-02-22T12:26:49.012Z,100186.60
2023-02-22T12:29:26.700Z,100188.80
2023-02-22T12:32:10.356Z,100192.00
2023-02-22T12:34:44.572Z,100189.60
2023-02-22T12:37:25.051Z,100186.00
2023-02-22T12:40:08.954Z,100189.20
2023-02-22T12:43:05.381Z,100188.40
2023-02-22T12:45:54.856Z,100197.80
2023-02-22T12:48:44.512Z,100191.60
2023-02-22T12:51:46.488Z,100194.20
2023-02-22T12:54:46.332Z,100194.40
2023-02-22T12:57:57.194Z,100199.60
2023-02-22T13:00:36.762Z,100204.80
2023-02-22T13:03:37.543Z,100200.20
2023-02-22T13:06:49.625Z,100204.00
2023-02-22T13:09:49.342Z,100203.20
2023-02-22T13:12:53.639Z,100205.80
2023-02-22T13:15:55.860Z,100206.60
2023-02-22T13:18:45.010Z,100208.60
2023-02-22T13:21:31.820Z,100208.40
2023-02-22T13:24:58.507Z,100211.40
2023-02-22T13:27:52.842Z,100212.80
2023-02-22T13:30:38.214Z,100204.20
2023-02-22T13:33:44.000Z,100206.40
2023-02-22T13:36:38.804Z,100208.20
2023-02-22T13:39:28.579Z,100212.80
2023-02-22T13:42:34.819Z,100216.00
2023-02-22T13:45:27.221Z,100212.20
2023-02-22T13:48:39.442Z,100212.00
2023-02-22T13:51:36.437Z,100219.00
2023-02-22T13:54:34.636Z,100216.20
2023-02-22T13:57:03.709Z,100219.80
2023-02-22T13:59:37.164Z,100214.20
2023-02-22T14:02:07.912Z,100215.80
2023-02-22T14:04:41.033Z,100222.00
2023-02-22T14:07:18.217Z,100217.60
2023-02-22T14:09:56.758Z,100216.80
2023-02-22T14:12:30.918Z,100217.60
2023-02-22T14:15:26.543Z,100221.20
2023-02-22T14:18:07.463Z,100221.60
2023-02-22T14:20:38.252Z,100219.00
2023-02-22T14:23:33.610Z,100223.80
2023-02-22T14:26:19.829Z,100221.40
2023-02-22T14:29:00.754Z,100223.60
2023-02-22T14:31:46.567Z,100220.60
2023-02-22T14:34:40.630Z,100221.20
2023-02-22T14:37:17.654Z,100219.20
2023-02-22T14:40:27.288Z,100220.40
2023-02-22T14:43:19.851Z,100218.60
2023-02-22T14:45:54.472Z,100214.60
2023-02-22T14:48:39.260Z,100220.40
2023-02-22T14:51:21.886Z,100225.80
2023-02-22T14:53:59.984Z,100217.80
2023-02-22T14:57:12.156Z,100225.40
2023-02-22T15:00:22.726Z,100220.60
2023-02-22T15:02:57.344Z,100221.20
2023-02-22T15:05:30.438Z,100225.20
2023-02-22T15:08:03.993Z,100226.60
2023-02-22T15:10:43.164Z,100228.40
2023-02-22T15:13:27.907Z,100226.00
2023-02-22T15:16:01.789Z,100225.80
2023-02-22T15:18:47.186Z,100226.80
2023-02-22T15:21:24.049Z,100229.40
2023-02-22T15:23:59.925Z,100230.00
2023-02-22T15:26:52.025Z,100230.20
2023-02-22T15:29:39.591Z,100232.80
2023-02-22T15:32:30.500Z,100232.80
2023-02-22T15:35:24.054Z,100235.20
2023-02-22T15:38:04.116Z,100234.40
2023-02-22T15:40:33.712Z,100232.20
2023-02-22T15:43:08.588Z,100237.20
2023-02-22T15:45:42.946Z,100237.60
2023-02-22T15:48:12.063Z,100242.20
2023-02-22T15:50:39.927Z,100243.80
2023-02-22T15:53:28.812Z,100242.40
2023-02-22T15:56:00.948Z,100243.60
2023-02-22T15:58:30.027Z,100243.60
2023-02-22T16:01:05.355Z,100250.00
2023-02-22T16:03:51.856Z,100253.40
2023-02-22T16:06:35.229Z,100260.00
2023-02-22T16:09:30.352Z,100255.40
2023-02-22T16:12:22.015Z,100258.60
2023-02-22T16:14:52.452Z,100261.00
2023-02-22T16:17:41.140Z,100264.60
2023-02-22T16:20:14.389Z,100261.20
2023-02-22T16:22:49.308Z,100267.00
2023-02-22T16:25:21.588Z,100271.60
2023-02-22T16:28:06.308Z,100271.40
2023-02-22T16:30:37.712Z,100271.60
2023-02-22T16:33:13.596Z,100276.80
2023-02-22T16:35:51.804Z,100277.20
2023-02-22T16:38:21.165Z,100284.60
2023-02-22T16:40:54.909Z,100284.80
2023-02-22T16:43:29.584Z,100278.80
2023-02-22T16:45:58.356Z,100283.60
2023-02-22T16:48:32.908Z,100279.40
2023-02-22T16:51:09.204Z,100286.80
2023-02-22T16:53:37.650Z,100282.60
2023-02-22T16:56:11.756Z,100282.00
2023-02-22T16:58:41.445Z,100284.40
2023-02-22T17:01:09.985Z,100284.00
2023-02-22T17:03:38.341Z,100290.20
2023-02-22T17:06:07.186Z,100290.00
2023-02-22T17:08:34.982Z,100286.40
2023-02-22T17:11:04.134Z,100287.80
2023-02-22T17:13:32.460Z,100295.00
2023-02-22T17:16:00.304Z,100292.40
2023-02-22T17:18:33.859Z,100299.00
2023-02-22T17:21:03.443Z,100297.20
2023-02-22T17:23:31.264Z,100299.80
2023-02-22T17:26:04.650Z,100298.80
2023-02-22T17:28:32.589Z,100311.00
2023-02-22T17:31:01.964Z,100318.40
2023-02-22T17:33:34.729Z,100325.20
2023-02-22T17:36:05.290Z,100323.60
2023-02-22T17:38:34.706Z,100332.40
2023-02-22T17:41:03.341Z,100336.60
2023-02-22T17:43:31.309Z,100343.60
2023-02-22T17:45:59.453Z,100344.60
2023-02-22T17:48:27.556Z,100346.40
2023-02-22T17:50:56.111Z,100351.80
2023-02-22T17:53:25.486Z,100346.60
2023-02-22T17:55:53.605Z,100346.60
2023-02-22T17:58:22.747Z,100353.80
2023-02-22T18:00:51.786Z,100351.20
2023-02-22T18:03:25.327Z,100355.00
2023-02-22T18:05:59.986Z,100353.00
2023-02-22T18:08:31.127Z,100362.80
2023-02-22T18:11:03.350Z,100361.60
2023-02-22T18:13:31.532Z,100368.60
2023-02-22T18:16:00.218Z,100364.80
2023-02-22T18:18:28.561Z,100371.00
2023-02-22T18:20:59.805Z,100373.20
2023-02-22T18:23:32.086Z,100375.60
2023-02-22T18:26:11.746Z,100375.00
2023-02-22T18:28:40.557Z,100377.20
2023-02-22T18:31:17.084Z,100380.60
2023-02-22T18:33:50.421Z,100380.80
2023-02-22T18:36:23.283Z,100382.00
2023-02-22T18:38:54.767Z,100379.20
2023-02-22T18:41:25.367Z,100381.40
2023-02-22T18:43:55.490Z,100386.40
2023-02-22T18:46:24.652Z,100386.80
2023-02-22T18:48:55.709Z,100390.00
2023-02-22T18:51:25.702Z,100392.60
2023-02-22T18:54:00.249Z,100395.20
2023-02-22T18:56:30.226Z,100398.80
2023-02-22T18:59:04.454Z,100402.40
2023-02-22T19:01:39.123Z,100399.60
2023-02-22T19:04:12.541Z,100403.80
2023-02-22T19:06:41.314Z,100406.20
2023-02-22T19:09:09.421Z,100402.40
2023-02-22T19:11:37.525Z,100405.80
2023-02-22T19:14:05.486Z,100405.80
2023-02-22T19:16:33.550Z,100403.20
2023-02-22T19:19:01.628Z,100401.20
2023-02-22T19:21:31.877Z,100404.00
2023-02-22T19:24:04.582Z,100410.60
2023-02-22T19:26:32.600Z,100412.80
2023-02-22T19:29:08.445Z,100418.00
2023-02-22T19:31:36.556Z,100418.20
2023-02-22T19:34:10.334Z,100422.20
2023-02-22T19:36:45.872Z,100418.80
2023-02-22T19:39:17.254Z,100427.40
2023-02-22T19:41:46.018Z,100428.80
2023-02-22T19:44:14.053Z,100428.20
2023-02-22T19:46:42.162Z,100428.60
2023-02-22T19:49:10.034Z,100431.00
2023-02-22T19:51:38.012Z,100435.60
2023-02-22T19:54:11.101Z,100430.40
2023-02-22T19:56:38.949Z,100430.40
2023-02-22T19:59:13.625Z,100428.00
2023-02-22T20:01:45.682Z,100427.00
2023-02-22T20:04:18.504Z,100429.00
2023-02-22T20:06:54.649Z,100430.60
2023-02-22T20:09:30.095Z,100431.80
2023-02-22T20:11:58.775Z,100428.80
2023-02-22T20:14:28.647Z,100427.60
2023-02-22T20:16:58.813Z,100432.60
2023-02-22T20:19:28.359Z,100441.00
2023-02-22T20:21:56.849Z,100439.80
2023-02-22T20:24:25.687Z,100438.00
2023-02-22T20:26:55.850Z,100451.20
2023-02-22T20:29:29.872Z,100448.60
2023-02-22T20:32:00.605Z,100449.60
2023-02-22T20:34:32.364Z,100447.80
2023-02-22T20:37:01.326Z,100447.80
2023-02-22T20:39:29.675Z,100442.40
2023-02-22T20:42:00.447Z,100446.80
2023-02-22T20:44:28.364Z,100446.60
2023-02-22T20:46:56.264Z,100449.60
2023-02-22T20:49:25.836Z,100450.40
2023-02-22T20:51:53.722Z,100451.80
2023-02-22T20:54:21.677Z,100447.40
2023-02-22T20:56:52.657Z,100447.00
2023-02-22T20:59:21.841Z,100453.20
2023-02-22T21:01:50.461Z,100453.00
2023-02-22T21:04:19.055Z,100461.00
2023-02-22T21:06:46.934Z,100467.40
2023-02-22T21:09:19.822Z,100470.60
2023-02-22T21:11:47.938Z,100469.00
2023-02-22T21:14:20.750Z,100472.40
2023-02-22T21:16:51.611Z,100467.20
2023-02-22T21:19:25.750Z,100474.80
2023-02-22T21:22:01.500Z,100479.20
2023-02-22T21:24:29.855Z,100488.20
2023-02-22T21:27:01.120Z,100498.60
2023-02-22T21:29:29.801Z,100502.00
2023-02-22T21:31:58.636Z,100506.20
2023-02-22T21:34:26.662Z,100507.00
2023-02-22T21:36:54.779Z,100508.20
2023-02-22T21:39:28.136Z,100514.20
2023-02-22T21:42:00.713Z,100516.20
2023-02-22T21:44:29.652Z,100517.80
2023-02-22T21:46:57.695Z,100519.40
2023-02-22T21:49:25.606Z,100525.80
2023-02-22T21:51:53.847Z,100524.60
2023-02-22T21:54:21.808Z,100526.40
2023-02-22T21:56:50.563Z,100523.80
2023-02-22T21:59:22.469Z,100521.20
2023-02-22T22:01:55.855Z,100523.60
2023-02-22T22:04:32.528Z,100524.80
2023-02-22T22:07:02.330Z,100533.40
2023-02-22T22:09:37.716Z,100532.20
2023-02-22T22:12:06.157Z,100534.00
2023-02-22T22:14:35.267Z,100533.60
2023-02-22T22:17:07.048Z,100531.00
2023-02-22T22:19:39.272Z,100535.20
2023-02-22T22:22:08.140Z,100532.40
2023-02-22T22:24:37.121Z,100532.40
2023-02-22T22:27:06.560Z,100535.00
2023-02-22T22:29:34.639Z,100534.40
2023-02-22T22:32:03.700Z,100538.60
2023-02-22T22:34:34.429Z,100534.40
2023-02-22T22:37:03.071Z,100538.00
2023-02-22T22:39:31.792Z,100539.20
2023-02-22T22:41:59.777Z,100538.00
2023-02-22T22:44:33.138Z,100537.80
2023-02-22T22:47:01.453Z,100536.40
2023-02-22T22:49:31.343Z,100532.80
2023-02-22T22:51:59.226Z,100543.80
2023-02-22T22:54:27.101Z,100549.80
2023-02-22T22:56:54.858Z,100552.60
2023-02-22T22:59:22.818Z,100557.00
2023-02-22T23:01:52.268Z,100559.80
2023-02-22T23:04:21.483Z,100565.20
2023-02-22T23:06:52.814Z,100558.40
2023-02-22T23:09:34.733Z,100559.20
2023-02-22T23:12:17.597Z,100561.20
2023-02-22T23:14:45.813Z,100551.80
2023-02-22T23:17:26.879Z,100558.40
2023-02-22T23:19:54.888Z,100565.00
2023-02-22T23:22:23.080Z,100565.00
2023-02-22T23:24:50.946Z,100571.60
2023-02-22T23:27:19.223Z,100571.40
2023-02-22T23:29:47.201Z,100578.00
2023-02-22T23:32:15.260Z,100577.60
2023-02-22T23:34:43.209Z,100574.00
2023-02-22T23:37:13.623Z,100574.00
2023-02-22T23:39:42.426Z,100575.00
2023-02-22T23:42:10.256Z,100570.20
2023-02-22T23:44:39.811Z,100572.80
2023-02-22T23:47:07.685Z,100572.60
2023-02-22T23:49:38.027Z,100576.60
2023-02-22T23:52:08.515Z,100581.40
2023-02-22T23:54:40.394Z,100588.40
2023-02-22T23:57:08.879Z,100591.80
2023-02-22T23:59:40.386Z,100605.40
